To NAV CANADA Home Page Login to a new session Search on AWWS site Feedback and Comments Disclaimer Vers la page française équivalente Tips FAQ What's new on the site To the Forecasts and Observations / NOTAM section To "File a Flight Plan" website Publications and other links Update of the User's profile FIC Telephone Numbers My Weather Data Folder Route Weather Data Regional Weather Data Local Weather Data To the Forecasts and Observations / NOTAM section
Request Generated 02/09/2016 at 20:18:12 UTC . Weather information available at that time is displayed.

METAR/TAF

TALOYOAK/NU    

METAR CYYH 092000Z 00000KT 15SM IC FEW015 FEW040 M38/M41 A3014 RMK
SC1SC1 SC TR SC TR FROIN SLP214 DENSITY ALT MISG=
METAR CYYH 091900Z 18003KT 15SM IC FEW015 SCT040 M38/M42 A3014 RMK
SC2SC1 FROIN SLP213 DENSITY ALT MISG=
METAR CYYH 091800Z 24002KT 15SM IC FEW015 SCT040 M39/M43 A3013 RMK
SC2SC1 FROIN SLP212 DENSITY ALT MISG=

TAF CYYH 091738Z 0918/1006 VRB03KT P6SM FEW015 SCT040 TEMPO 0918/1006
5SM IC
RMK NXT FCST BY 100000Z=
Your time UTC time
Weather data provided by Environment Canada and NAV CANADA